Patrick, South Carolina
Current Conditions -  °F | °C
As of 4:35 PM on Monday 24 Nov 2014 (Local Time) from KCQW Reporting Station
Clear Clear  
Wind Chill: 68°   Ceiling: Unl
Heat Index: 68°   Visibility: 10mi
Dew Point: 66°   Wind: 8mph
Humidity: 94%   Direction: 180°S
Pressure: 29.82"   Gusts: NA
Location:  34.57°N, 80.05°W
Report Text: KCQW 242135Z AUTO 18007KT 10SM CLR 20/19 A2982 RMK AO2
Loading
Personal Weather Stations






























Interactive Weather Map New forecast layout! Learn more

10-Day Weather Forecast

Advertisements
Track Severe Weather on mobile